sensor_id;sensor_type;location;lat;lon;timestamp;P1;durP1;ratioP1;P2;durP2;ratioP2
75894;SDS011;64573;50.328;15.014;2022-12-18T00:01:26;59.25;;;18.30;;
75894;SDS011;64573;50.328;15.014;2022-12-18T00:03:54;58.95;;;19.15;;
75894;SDS011;64573;50.328;15.014;2022-12-18T00:06:21;65.53;;;20.27;;
75894;SDS011;64573;50.328;15.014;2022-12-18T00:08:47;69.00;;;21.98;;
75894;SDS011;64573;50.328;15.014;2022-12-18T00:11:14;59.58;;;20.98;;
75894;SDS011;64573;50.328;15.014;2022-12-18T00:13:41;58.47;;;18.08;;
75894;SDS011;64573;50.328;15.014;2022-12-18T00:16:09;65.28;;;21.85;;
75894;SDS011;64573;50.328;15.014;2022-12-18T00:18:36;60.75;;;21.00;;
75894;SDS011;64573;50.328;15.014;2022-12-18T00:21:02;52.45;;;16.25;;
75894;SDS011;64573;50.328;15.014;2022-12-18T00:23:29;40.28;;;13.07;;
75894;SDS011;64573;50.328;15.014;2022-12-18T00:25:58;46.30;;;15.80;;
75894;SDS011;64573;50.328;15.014;2022-12-18T00:28:24;50.72;;;17.23;;
75894;SDS011;64573;50.328;15.014;2022-12-18T00:30:50;73.28;;;26.15;;
75894;SDS011;64573;50.328;15.014;2022-12-18T00:33:16;59.72;;;20.85;;
75894;SDS011;64573;50.328;15.014;2022-12-18T00:35:42;38.67;;;13.63;;
75894;SDS011;64573;50.328;15.014;2022-12-18T00:38:07;47.10;;;15.20;;
75894;SDS011;64573;50.328;15.014;2022-12-18T00:40:33;41.22;;;14.15;;
75894;SDS011;64573;50.328;15.014;2022-12-18T00:42:58;49.22;;;16.42;;
75894;SDS011;64573;50.328;15.014;2022-12-18T00:45:27;62.08;;;21.27;;
75894;SDS011;64573;50.328;15.014;2022-12-18T00:47:55;62.75;;;20.65;;
75894;SDS011;64573;50.328;15.014;2022-12-18T00:50:21;58.83;;;20.50;;
75894;SDS011;64573;50.328;15.014;2022-12-18T00:52:48;51.13;;;17.70;;
75894;SDS011;64573;50.328;15.014;2022-12-18T00:55:13;45.92;;;16.25;;
75894;SDS011;64573;50.328;15.014;2022-12-18T00:57:40;45.13;;;13.82;;
75894;SDS011;64573;50.328;15.014;2022-12-18T01:00:06;54.60;;;17.05;;
75894;SDS011;64573;50.328;15.014;2022-12-18T01:02:34;43.50;;;16.30;;
75894;SDS011;64573;50.328;15.014;2022-12-18T01:04:59;61.65;;;18.00;;
75894;SDS011;64573;50.328;15.014;2022-12-18T01:07:24;46.47;;;17.58;;
75894;SDS011;64573;50.328;15.014;2022-12-18T01:09:50;63.03;;;22.15;;
75894;SDS011;64573;50.328;15.014;2022-12-18T01:12:15;62.75;;;20.73;;
75894;SDS011;64573;50.328;15.014;2022-12-18T01:14:40;57.08;;;19.25;;
75894;SDS011;64573;50.328;15.014;2022-12-18T01:17:06;53.92;;;18.92;;
75894;SDS011;64573;50.328;15.014;2022-12-18T01:19:31;56.38;;;19.80;;
75894;SDS011;64573;50.328;15.014;2022-12-18T01:21:57;57.10;;;20.95;;
75894;SDS011;64573;50.328;15.014;2022-12-18T01:24:22;59.47;;;21.58;;
75894;SDS011;64573;50.328;15.014;2022-12-18T01:26:48;62.97;;;21.95;;
75894;SDS011;64573;50.328;15.014;2022-12-18T01:29:13;60.42;;;23.10;;
75894;SDS011;64573;50.328;15.014;2022-12-18T01:31:38;62.45;;;22.27;;
75894;SDS011;64573;50.328;15.014;2022-12-18T01:34:04;68.93;;;24.17;;
75894;SDS011;64573;50.328;15.014;2022-12-18T01:36:31;68.45;;;23.02;;
75894;SDS011;64573;50.328;15.014;2022-12-18T01:38:59;63.42;;;23.33;;
75894;SDS011;64573;50.328;15.014;2022-12-18T01:41:29;61.63;;;22.75;;
75894;SDS011;64573;50.328;15.014;2022-12-18T01:47:20;64.15;;;20.33;;
75894;SDS011;64573;50.328;15.014;2022-12-18T01:49:52;59.00;;;20.23;;
75894;SDS011;64573;50.328;15.014;2022-12-18T01:52:19;61.22;;;21.63;;
75894;SDS011;64573;50.328;15.014;2022-12-18T01:54:46;87.78;;;29.40;;
75894;SDS011;64573;50.328;15.014;2022-12-18T01:57:13;78.25;;;27.92;;
75894;SDS011;64573;50.328;15.014;2022-12-18T01:59:39;58.70;;;21.50;;
75894;SDS011;64573;50.328;15.014;2022-12-18T02:02:08;58.75;;;21.10;;
75894;SDS011;64573;50.328;15.014;2022-12-18T02:04:33;52.10;;;19.08;;
75894;SDS011;64573;50.328;15.014;2022-12-18T02:12:31;64.80;;;20.08;;
75894;SDS011;64573;50.328;15.014;2022-12-18T02:20:54;46.97;;;15.13;;
75894;SDS011;64573;50.328;15.014;2022-12-18T02:28:40;62.78;;;19.73;;
75894;SDS011;64573;50.328;15.014;2022-12-18T02:31:10;59.97;;;19.35;;
75894;SDS011;64573;50.328;15.014;2022-12-18T02:33:39;61.20;;;20.83;;
75894;SDS011;64573;50.328;15.014;2022-12-18T02:36:06;55.95;;;19.33;;
75894;SDS011;64573;50.328;15.014;2022-12-18T02:38:33;49.08;;;17.80;;
75894;SDS011;64573;50.328;15.014;2022-12-18T02:41:00;53.75;;;18.55;;
75894;SDS011;64573;50.328;15.014;2022-12-18T02:43:25;59.35;;;20.60;;
75894;SDS011;64573;50.328;15.014;2022-12-18T02:45:55;49.00;;;19.42;;
75894;SDS011;64573;50.328;15.014;2022-12-18T02:48:31;53.20;;;19.80;;
75894;SDS011;64573;50.328;15.014;2022-12-18T02:51:08;62.75;;;21.67;;
75894;SDS011;64573;50.328;15.014;2022-12-18T02:53:48;59.42;;;19.73;;
75894;SDS011;64573;50.328;15.014;2022-12-18T02:56:22;50.83;;;18.77;;
75894;SDS011;64573;50.328;15.014;2022-12-18T03:01:33;54.03;;;19.73;;
75894;SDS011;64573;50.328;15.014;2022-12-18T03:04:17;56.15;;;18.50;;
75894;SDS011;64573;50.328;15.014;2022-12-18T03:06:49;54.70;;;19.55;;
75894;SDS011;64573;50.328;15.014;2022-12-18T03:09:21;57.85;;;20.83;;
75894;SDS011;64573;50.328;15.014;2022-12-18T03:11:56;66.30;;;22.70;;
75894;SDS011;64573;50.328;15.014;2022-12-18T03:14:45;61.03;;;20.15;;
75894;SDS011;64573;50.328;15.014;2022-12-18T03:17:34;48.55;;;17.95;;
75894;SDS011;64573;50.328;15.014;2022-12-18T03:20:09;54.13;;;20.52;;
75894;SDS011;64573;50.328;15.014;2022-12-18T03:22:39;52.30;;;18.20;;
75894;SDS011;64573;50.328;15.014;2022-12-18T03:25:07;63.88;;;23.85;;
75894;SDS011;64573;50.328;15.014;2022-12-18T03:27:36;53.30;;;18.55;;
75894;SDS011;64573;50.328;15.014;2022-12-18T03:30:07;62.83;;;21.77;;
75894;SDS011;64573;50.328;15.014;2022-12-18T03:32:52;56.92;;;20.98;;
75894;SDS011;64573;50.328;15.014;2022-12-18T03:35:29;55.45;;;20.17;;
75894;SDS011;64573;50.328;15.014;2022-12-18T03:37:59;56.65;;;23.42;;
75894;SDS011;64573;50.328;15.014;2022-12-18T03:40:30;63.05;;;21.98;;
75894;SDS011;64573;50.328;15.014;2022-12-18T03:43:03;46.40;;;17.90;;
75894;SDS011;64573;50.328;15.014;2022-12-18T03:45:42;63.28;;;21.30;;
75894;SDS011;64573;50.328;15.014;2022-12-18T03:50:48;75.13;;;22.88;;
75894;SDS011;64573;50.328;15.014;2022-12-18T03:56:09;67.80;;;21.85;;
75894;SDS011;64573;50.328;15.014;2022-12-18T03:58:38;77.32;;;22.60;;
75894;SDS011;64573;50.328;15.014;2022-12-18T04:01:06;66.55;;;23.27;;
75894;SDS011;64573;50.328;15.014;2022-12-18T04:03:34;63.65;;;21.00;;
75894;SDS011;64573;50.328;15.014;2022-12-18T04:06:01;61.50;;;21.45;;
75894;SDS011;64573;50.328;15.014;2022-12-18T04:08:27;53.83;;;18.70;;
75894;SDS011;64573;50.328;15.014;2022-12-18T04:10:53;74.10;;;22.63;;
75894;SDS011;64573;50.328;15.014;2022-12-18T04:13:22;59.60;;;18.73;;
75894;SDS011;64573;50.328;15.014;2022-12-18T04:15:49;74.13;;;22.23;;
75894;SDS011;64573;50.328;15.014;2022-12-18T04:18:14;69.13;;;21.52;;
75894;SDS011;64573;50.328;15.014;2022-12-18T04:20:40;73.78;;;20.48;;
75894;SDS011;64573;50.328;15.014;2022-12-18T04:23:05;68.05;;;20.70;;
75894;SDS011;64573;50.328;15.014;2022-12-18T04:25:30;64.57;;;24.55;;
75894;SDS011;64573;50.328;15.014;2022-12-18T04:27:56;81.03;;;26.98;;
75894;SDS011;64573;50.328;15.014;2022-12-18T04:30:21;70.40;;;25.02;;
75894;SDS011;64573;50.328;15.014;2022-12-18T04:32:46;75.25;;;26.65;;
75894;SDS011;64573;50.328;15.014;2022-12-18T04:35:12;57.13;;;18.70;;
75894;SDS011;64573;50.328;15.014;2022-12-18T04:37:37;61.88;;;19.90;;
75894;SDS011;64573;50.328;15.014;2022-12-18T04:40:02;66.65;;;23.65;;
75894;SDS011;64573;50.328;15.014;2022-12-18T04:42:28;76.88;;;26.45;;
75894;SDS011;64573;50.328;15.014;2022-12-18T04:44:53;74.13;;;25.55;;
75894;SDS011;64573;50.328;15.014;2022-12-18T04:47:19;81.28;;;27.88;;
75894;SDS011;64573;50.328;15.014;2022-12-18T04:49:44;72.15;;;24.58;;
75894;SDS011;64573;50.328;15.014;2022-12-18T04:52:09;60.22;;;23.48;;
75894;SDS011;64573;50.328;15.014;2022-12-18T04:54:35;71.22;;;26.30;;
75894;SDS011;64573;50.328;15.014;2022-12-18T04:57:00;76.38;;;24.98;;
75894;SDS011;64573;50.328;15.014;2022-12-18T04:59:25;68.82;;;23.00;;
75894;SDS011;64573;50.328;15.014;2022-12-18T05:01:51;69.05;;;24.73;;
75894;SDS011;64573;50.328;15.014;2022-12-18T05:04:16;74.07;;;25.52;;
75894;SDS011;64573;50.328;15.014;2022-12-18T05:06:41;58.78;;;22.63;;
75894;SDS011;64573;50.328;15.014;2022-12-18T05:09:07;70.57;;;24.33;;
75894;SDS011;64573;50.328;15.014;2022-12-18T05:11:32;68.90;;;23.33;;
75894;SDS011;64573;50.328;15.014;2022-12-18T05:14:01;68.45;;;23.75;;
75894;SDS011;64573;50.328;15.014;2022-12-18T05:16:27;75.13;;;25.10;;
75894;SDS011;64573;50.328;15.014;2022-12-18T05:18:52;72.50;;;24.65;;
75894;SDS011;64573;50.328;15.014;2022-12-18T05:21:17;67.13;;;20.17;;
75894;SDS011;64573;50.328;15.014;2022-12-18T05:23:43;62.15;;;20.88;;
75894;SDS011;64573;50.328;15.014;2022-12-18T05:26:08;58.95;;;19.88;;
75894;SDS011;64573;50.328;15.014;2022-12-18T05:28:38;51.17;;;18.75;;
75894;SDS011;64573;50.328;15.014;2022-12-18T05:31:04;62.53;;;20.48;;
75894;SDS011;64573;50.328;15.014;2022-12-18T05:33:31;53.88;;;19.25;;
75894;SDS011;64573;50.328;15.014;2022-12-18T05:35:58;41.10;;;16.42;;
75894;SDS011;64573;50.328;15.014;2022-12-18T05:38:28;59.78;;;19.77;;
75894;SDS011;64573;50.328;15.014;2022-12-18T05:40:54;52.22;;;18.10;;
75894;SDS011;64573;50.328;15.014;2022-12-18T05:43:20;51.95;;;19.25;;
75894;SDS011;64573;50.328;15.014;2022-12-18T05:45:46;55.08;;;18.92;;
75894;SDS011;64573;50.328;15.014;2022-12-18T05:48:13;46.53;;;17.95;;
75894;SDS011;64573;50.328;15.014;2022-12-18T05:50:39;46.47;;;17.73;;
75894;SDS011;64573;50.328;15.014;2022-12-18T05:53:06;55.33;;;19.00;;
75894;SDS011;64573;50.328;15.014;2022-12-18T05:55:33;51.92;;;19.20;;
75894;SDS011;64573;50.328;15.014;2022-12-18T05:58:03;45.28;;;16.08;;
75894;SDS011;64573;50.328;15.014;2022-12-18T06:00:30;48.97;;;17.38;;
75894;SDS011;64573;50.328;15.014;2022-12-18T06:02:57;52.35;;;18.80;;
75894;SDS011;64573;50.328;15.014;2022-12-18T06:05:22;59.60;;;20.92;;
75894;SDS011;64573;50.328;15.014;2022-12-18T06:07:48;56.92;;;20.70;;
75894;SDS011;64573;50.328;15.014;2022-12-18T06:10:13;56.08;;;21.40;;
75894;SDS011;64573;50.328;15.014;2022-12-18T06:12:39;57.25;;;21.10;;
75894;SDS011;64573;50.328;15.014;2022-12-18T06:15:04;59.47;;;22.55;;
75894;SDS011;64573;50.328;15.014;2022-12-18T06:17:30;64.07;;;20.20;;
75894;SDS011;64573;50.328;15.014;2022-12-18T06:19:57;59.83;;;20.25;;
75894;SDS011;64573;50.328;15.014;2022-12-18T06:22:22;43.40;;;14.27;;
75894;SDS011;64573;50.328;15.014;2022-12-18T06:24:47;37.47;;;12.35;;
75894;SDS011;64573;50.328;15.014;2022-12-18T06:27:13;52.03;;;16.73;;
75894;SDS011;64573;50.328;15.014;2022-12-18T06:29:38;71.03;;;20.15;;
75894;SDS011;64573;50.328;15.014;2022-12-18T06:32:04;49.70;;;18.25;;
75894;SDS011;64573;50.328;15.014;2022-12-18T06:34:29;57.08;;;17.35;;
75894;SDS011;64573;50.328;15.014;2022-12-18T06:36:55;57.35;;;16.65;;
75894;SDS011;64573;50.328;15.014;2022-12-18T06:39:20;47.70;;;17.10;;
75894;SDS011;64573;50.328;15.014;2022-12-18T06:41:45;42.65;;;14.68;;
75894;SDS011;64573;50.328;15.014;2022-12-18T06:44:10;45.65;;;16.30;;
75894;SDS011;64573;50.328;15.014;2022-12-18T06:46:36;59.00;;;19.52;;
75894;SDS011;64573;50.328;15.014;2022-12-18T06:49:02;45.83;;;17.40;;
75894;SDS011;64573;50.328;15.014;2022-12-18T06:51:28;54.58;;;17.73;;
75894;SDS011;64573;50.328;15.014;2022-12-18T06:53:54;50.58;;;17.58;;
75894;SDS011;64573;50.328;15.014;2022-12-18T06:56:19;50.38;;;17.05;;
75894;SDS011;64573;50.328;15.014;2022-12-18T06:58:45;57.97;;;17.40;;
75894;SDS011;64573;50.328;15.014;2022-12-18T07:01:11;55.05;;;18.50;;
75894;SDS011;64573;50.328;15.014;2022-12-18T07:03:38;47.95;;;17.58;;
75894;SDS011;64573;50.328;15.014;2022-12-18T07:06:05;50.60;;;16.85;;
75894;SDS011;64573;50.328;15.014;2022-12-18T07:08:31;53.55;;;18.15;;
75894;SDS011;64573;50.328;15.014;2022-12-18T07:10:57;60.50;;;19.42;;
75894;SDS011;64573;50.328;15.014;2022-12-18T07:13:22;56.38;;;18.92;;
75894;SDS011;64573;50.328;15.014;2022-12-18T07:15:48;56.75;;;19.88;;
75894;SDS011;64573;50.328;15.014;2022-12-18T07:18:13;61.10;;;18.50;;
75894;SDS011;64573;50.328;15.014;2022-12-18T07:20:38;52.50;;;17.02;;
75894;SDS011;64573;50.328;15.014;2022-12-18T07:23:04;51.95;;;18.02;;
75894;SDS011;64573;50.328;15.014;2022-12-18T07:25:33;54.63;;;18.45;;
75894;SDS011;64573;50.328;15.014;2022-12-18T07:27:59;61.45;;;20.70;;
75894;SDS011;64573;50.328;15.014;2022-12-18T07:30:25;55.28;;;18.13;;
75894;SDS011;64573;50.328;15.014;2022-12-18T07:32:50;47.88;;;17.20;;
75894;SDS011;64573;50.328;15.014;2022-12-18T07:35:15;56.70;;;18.27;;
75894;SDS011;64573;50.328;15.014;2022-12-18T07:37:41;54.75;;;18.40;;
75894;SDS011;64573;50.328;15.014;2022-12-18T07:40:07;50.78;;;19.20;;
75894;SDS011;64573;50.328;15.014;2022-12-18T07:42:33;55.97;;;19.35;;
75894;SDS011;64573;50.328;15.014;2022-12-18T07:44:59;50.95;;;18.10;;
75894;SDS011;64573;50.328;15.014;2022-12-18T07:47:28;54.10;;;17.40;;
75894;SDS011;64573;50.328;15.014;2022-12-18T07:49:58;49.63;;;18.38;;
75894;SDS011;64573;50.328;15.014;2022-12-18T07:52:24;62.58;;;20.83;;
75894;SDS011;64573;50.328;15.014;2022-12-18T07:54:49;48.92;;;19.52;;
75894;SDS011;64573;50.328;15.014;2022-12-18T07:57:15;71.80;;;24.15;;
75894;SDS011;64573;50.328;15.014;2022-12-18T07:59:41;68.55;;;23.95;;
75894;SDS011;64573;50.328;15.014;2022-12-18T08:02:07;73.85;;;24.50;;
75894;SDS011;64573;50.328;15.014;2022-12-18T08:04:33;69.95;;;22.92;;
75894;SDS011;64573;50.328;15.014;2022-12-18T08:07:01;73.22;;;23.92;;
75894;SDS011;64573;50.328;15.014;2022-12-18T08:09:26;90.53;;;27.52;;
75894;SDS011;64573;50.328;15.014;2022-12-18T08:11:52;84.32;;;26.63;;
75894;SDS011;64573;50.328;15.014;2022-12-18T08:14:17;103.65;;;37.42;;
75894;SDS011;64573;50.328;15.014;2022-12-18T08:16:42;92.18;;;25.98;;
75894;SDS011;64573;50.328;15.014;2022-12-18T08:19:08;94.82;;;28.70;;
75894;SDS011;64573;50.328;15.014;2022-12-18T08:21:36;97.38;;;30.23;;
75894;SDS011;64573;50.328;15.014;2022-12-18T08:24:02;89.13;;;27.25;;
75894;SDS011;64573;50.328;15.014;2022-12-18T08:26:28;99.03;;;30.77;;
75894;SDS011;64573;50.328;15.014;2022-12-18T08:28:55;91.15;;;25.17;;
75894;SDS011;64573;50.328;15.014;2022-12-18T08:31:22;85.53;;;26.90;;
75894;SDS011;64573;50.328;15.014;2022-12-18T08:33:49;90.47;;;26.05;;
75894;SDS011;64573;50.328;15.014;2022-12-18T08:36:15;85.47;;;26.40;;
75894;SDS011;64573;50.328;15.014;2022-12-18T08:38:42;97.65;;;27.55;;
75894;SDS011;64573;50.328;15.014;2022-12-18T08:41:08;87.35;;;26.00;;
75894;SDS011;64573;50.328;15.014;2022-12-18T08:43:35;85.80;;;27.27;;
75894;SDS011;64573;50.328;15.014;2022-12-18T08:48:46;76.97;;;22.80;;
75894;SDS011;64573;50.328;15.014;2022-12-18T08:51:12;73.10;;;24.88;;
75894;SDS011;64573;50.328;15.014;2022-12-18T08:53:40;85.55;;;25.92;;
75894;SDS011;64573;50.328;15.014;2022-12-18T08:56:05;94.25;;;25.98;;
75894;SDS011;64573;50.328;15.014;2022-12-18T08:58:31;98.47;;;28.48;;
75894;SDS011;64573;50.328;15.014;2022-12-18T09:01:03;63.13;;;21.02;;
75894;SDS011;64573;50.328;15.014;2022-12-18T09:03:30;69.45;;;21.27;;
75894;SDS011;64573;50.328;15.014;2022-12-18T09:05:55;70.75;;;21.45;;
75894;SDS011;64573;50.328;15.014;2022-12-18T09:08:21;58.38;;;19.70;;
75894;SDS011;64573;50.328;15.014;2022-12-18T09:10:47;65.38;;;19.55;;
75894;SDS011;64573;50.328;15.014;2022-12-18T09:13:14;76.15;;;21.40;;
75894;SDS011;64573;50.328;15.014;2022-12-18T09:15:41;69.82;;;20.35;;
75894;SDS011;64573;50.328;15.014;2022-12-18T09:18:07;64.28;;;19.25;;
75894;SDS011;64573;50.328;15.014;2022-12-18T09:20:34;49.75;;;15.50;;
75894;SDS011;64573;50.328;15.014;2022-12-18T09:23:00;38.83;;;12.00;;
75894;SDS011;64573;50.328;15.014;2022-12-18T09:25:25;39.08;;;13.75;;
75894;SDS011;64573;50.328;15.014;2022-12-18T09:27:52;47.22;;;16.00;;
75894;SDS011;64573;50.328;15.014;2022-12-18T09:30:18;47.42;;;15.90;;
75894;SDS011;64573;50.328;15.014;2022-12-18T09:32:43;45.30;;;14.75;;
75894;SDS011;64573;50.328;15.014;2022-12-18T09:35:08;45.88;;;13.75;;
75894;SDS011;64573;50.328;15.014;2022-12-18T09:37:34;55.47;;;15.73;;
75894;SDS011;64573;50.328;15.014;2022-12-18T09:39:59;49.88;;;16.27;;
75894;SDS011;64573;50.328;15.014;2022-12-18T09:42:24;47.30;;;14.77;;
75894;SDS011;64573;50.328;15.014;2022-12-18T09:44:51;54.00;;;15.95;;
75894;SDS011;64573;50.328;15.014;2022-12-18T09:47:23;58.42;;;16.40;;
75894;SDS011;64573;50.328;15.014;2022-12-18T09:49:56;75.70;;;21.35;;
75894;SDS011;64573;50.328;15.014;2022-12-18T09:55:03;50.63;;;17.80;;
75894;SDS011;64573;50.328;15.014;2022-12-18T09:57:49;70.28;;;18.50;;
75894;SDS011;64573;50.328;15.014;2022-12-18T10:00:20;73.68;;;23.88;;
75894;SDS011;64573;50.328;15.014;2022-12-18T10:02:48;72.82;;;20.80;;
75894;SDS011;64573;50.328;15.014;2022-12-18T10:05:17;54.38;;;16.67;;
75894;SDS011;64573;50.328;15.014;2022-12-18T10:08:01;76.13;;;19.63;;
75894;SDS011;64573;50.328;15.014;2022-12-18T10:10:38;35.55;;;12.73;;
75894;SDS011;64573;50.328;15.014;2022-12-18T10:15:58;61.65;;;18.88;;
75894;SDS011;64573;50.328;15.014;2022-12-18T10:21:15;76.10;;;18.90;;
75894;SDS011;64573;50.328;15.014;2022-12-18T10:26:13;63.97;;;20.27;;
75894;SDS011;64573;50.328;15.014;2022-12-18T10:28:40;59.88;;;19.13;;
75894;SDS011;64573;50.328;15.014;2022-12-18T10:31:06;57.15;;;17.92;;
75894;SDS011;64573;50.328;15.014;2022-12-18T10:33:39;58.75;;;17.10;;
75894;SDS011;64573;50.328;15.014;2022-12-18T10:36:06;57.35;;;19.08;;
75894;SDS011;64573;50.328;15.014;2022-12-18T10:38:32;63.67;;;19.90;;
75894;SDS011;64573;50.328;15.014;2022-12-18T10:41:02;62.92;;;18.05;;
75894;SDS011;64573;50.328;15.014;2022-12-18T10:46:47;45.92;;;15.18;;
75894;SDS011;64573;50.328;15.014;2022-12-18T10:49:18;56.90;;;15.88;;
75894;SDS011;64573;50.328;15.014;2022-12-18T10:51:47;55.88;;;18.85;;
75894;SDS011;64573;50.328;15.014;2022-12-18T10:54:21;56.67;;;18.38;;
75894;SDS011;64573;50.328;15.014;2022-12-18T10:56:48;55.15;;;16.52;;
75894;SDS011;64573;50.328;15.014;2022-12-18T10:59:14;67.75;;;21.20;;
75894;SDS011;64573;50.328;15.014;2022-12-18T11:04:15;50.85;;;18.60;;
75894;SDS011;64573;50.328;15.014;2022-12-18T11:06:59;51.95;;;14.02;;
75894;SDS011;64573;50.328;15.014;2022-12-18T11:09:29;52.13;;;15.90;;
75894;SDS011;64573;50.328;15.014;2022-12-18T11:11:57;44.05;;;14.13;;
75894;SDS011;64573;50.328;15.014;2022-12-18T11:14:46;54.65;;;17.33;;
75894;SDS011;64573;50.328;15.014;2022-12-18T11:17:21;90.75;;;29.42;;
75894;SDS011;64573;50.328;15.014;2022-12-18T11:19:56;51.25;;;15.45;;
75894;SDS011;64573;50.328;15.014;2022-12-18T11:22:27;43.45;;;14.32;;
75894;SDS011;64573;50.328;15.014;2022-12-18T11:27:30;50.78;;;16.05;;
75894;SDS011;64573;50.328;15.014;2022-12-18T11:33:19;48.97;;;17.48;;
75894;SDS011;64573;50.328;15.014;2022-12-18T11:35:57;46.63;;;16.58;;
75894;SDS011;64573;50.328;15.014;2022-12-18T11:38:34;35.08;;;13.25;;
75894;SDS011;64573;50.328;15.014;2022-12-18T11:41:04;46.72;;;13.77;;
75894;SDS011;64573;50.328;15.014;2022-12-18T11:43:42;42.78;;;12.75;;
75894;SDS011;64573;50.328;15.014;2022-12-18T11:46:15;33.90;;;11.77;;
75894;SDS011;64573;50.328;15.014;2022-12-18T11:52:18;47.83;;;17.33;;
75894;SDS011;64573;50.328;15.014;2022-12-18T11:54:46;45.22;;;15.85;;
75894;SDS011;64573;50.328;15.014;2022-12-18T12:08:08;45.60;;;15.27;;
75894;SDS011;64573;50.328;15.014;2022-12-18T12:13:51;46.45;;;13.85;;
75894;SDS011;64573;50.328;15.014;2022-12-18T12:16:23;50.40;;;15.48;;
75894;SDS011;64573;50.328;15.014;2022-12-18T12:21:42;54.65;;;14.07;;
75894;SDS011;64573;50.328;15.014;2022-12-18T12:27:25;48.90;;;16.20;;
75894;SDS011;64573;50.328;15.014;2022-12-18T12:32:46;42.22;;;14.02;;
75894;SDS011;64573;50.328;15.014;2022-12-18T12:35:19;58.05;;;18.27;;
75894;SDS011;64573;50.328;15.014;2022-12-18T12:40:26;52.38;;;16.98;;
75894;SDS011;64573;50.328;15.014;2022-12-18T12:42:59;56.20;;;17.20;;
75894;SDS011;64573;50.328;15.014;2022-12-18T12:45:54;59.83;;;18.33;;
75894;SDS011;64573;50.328;15.014;2022-12-18T12:51:17;54.17;;;16.00;;
75894;SDS011;64573;50.328;15.014;2022-12-18T12:53:53;47.05;;;13.40;;
75894;SDS011;64573;50.328;15.014;2022-12-18T12:56:21;53.70;;;16.65;;
75894;SDS011;64573;50.328;15.014;2022-12-18T13:04:49;57.67;;;16.65;;
75894;SDS011;64573;50.328;15.014;2022-12-18T13:07:29;67.57;;;18.63;;
75894;SDS011;64573;50.328;15.014;2022-12-18T13:10:14;50.10;;;17.10;;
75894;SDS011;64573;50.328;15.014;2022-12-18T13:12:52;71.68;;;18.20;;
75894;SDS011;64573;50.328;15.014;2022-12-18T13:15:28;65.68;;;18.80;;
75894;SDS011;64573;50.328;15.014;2022-12-18T13:25:48;61.92;;;17.20;;
75894;SDS011;64573;50.328;15.014;2022-12-18T13:28:21;62.88;;;18.35;;
75894;SDS011;64573;50.328;15.014;2022-12-18T13:31:06;48.83;;;14.38;;
75894;SDS011;64573;50.328;15.014;2022-12-18T13:36:12;55.92;;;15.30;;
75894;SDS011;64573;50.328;15.014;2022-12-18T13:39:10;48.30;;;15.10;;
75894;SDS011;64573;50.328;15.014;2022-12-18T13:41:35;58.78;;;17.35;;
75894;SDS011;64573;50.328;15.014;2022-12-18T13:44:11;65.10;;;19.40;;
75894;SDS011;64573;50.328;15.014;2022-12-18T13:46:47;46.28;;;14.23;;
75894;SDS011;64573;50.328;15.014;2022-12-18T13:51:49;69.93;;;20.92;;
75894;SDS011;64573;50.328;15.014;2022-12-18T13:54:35;58.65;;;19.27;;
75894;SDS011;64573;50.328;15.014;2022-12-18T13:57:05;48.15;;;15.30;;
75894;SDS011;64573;50.328;15.014;2022-12-18T13:59:50;52.03;;;16.45;;
75894;SDS011;64573;50.328;15.014;2022-12-18T14:02:17;57.58;;;16.58;;
75894;SDS011;64573;50.328;15.014;2022-12-18T14:04:48;56.55;;;17.42;;
75894;SDS011;64573;50.328;15.014;2022-12-18T14:09:46;65.95;;;19.63;;
75894;SDS011;64573;50.328;15.014;2022-12-18T14:12:16;63.47;;;20.25;;
75894;SDS011;64573;50.328;15.014;2022-12-18T14:15:05;53.25;;;16.98;;
75894;SDS011;64573;50.328;15.014;2022-12-18T14:17:41;46.05;;;15.18;;
75894;SDS011;64573;50.328;15.014;2022-12-18T14:20:12;49.63;;;16.10;;
75894;SDS011;64573;50.328;15.014;2022-12-18T14:22:39;54.85;;;15.57;;
75894;SDS011;64573;50.328;15.014;2022-12-18T14:27:37;67.22;;;18.00;;
75894;SDS011;64573;50.328;15.014;2022-12-18T14:36:03;48.30;;;15.40;;
75894;SDS011;64573;50.328;15.014;2022-12-18T14:38:30;44.63;;;14.30;;
75894;SDS011;64573;50.328;15.014;2022-12-18T14:40:58;53.22;;;17.10;;
75894;SDS011;64573;50.328;15.014;2022-12-18T14:43:27;54.58;;;16.88;;
75894;SDS011;64573;50.328;15.014;2022-12-18T14:45:54;65.13;;;17.80;;
75894;SDS011;64573;50.328;15.014;2022-12-18T14:53:41;49.65;;;16.17;;
75894;SDS011;64573;50.328;15.014;2022-12-18T14:58:37;45.10;;;14.65;;
75894;SDS011;64573;50.328;15.014;2022-12-18T15:01:02;68.95;;;22.67;;
75894;SDS011;64573;50.328;15.014;2022-12-18T15:03:28;55.53;;;17.15;;
75894;SDS011;64573;50.328;15.014;2022-12-18T15:05:53;58.15;;;15.50;;
75894;SDS011;64573;50.328;15.014;2022-12-18T15:08:35;60.67;;;19.20;;
75894;SDS011;64573;50.328;15.014;2022-12-18T15:11:01;52.63;;;16.05;;
75894;SDS011;64573;50.328;15.014;2022-12-18T15:13:27;53.40;;;16.90;;
75894;SDS011;64573;50.328;15.014;2022-12-18T15:15:53;61.60;;;18.65;;
75894;SDS011;64573;50.328;15.014;2022-12-18T15:18:23;67.32;;;19.58;;
75894;SDS011;64573;50.328;15.014;2022-12-18T15:21:09;50.92;;;17.80;;
75894;SDS011;64573;50.328;15.014;2022-12-18T15:23:49;47.10;;;15.35;;
75894;SDS011;64573;50.328;15.014;2022-12-18T15:26:17;51.35;;;16.25;;
75894;SDS011;64573;50.328;15.014;2022-12-18T15:28:46;47.28;;;15.48;;
75894;SDS011;64573;50.328;15.014;2022-12-18T15:33:40;48.63;;;14.80;;
75894;SDS011;64573;50.328;15.014;2022-12-18T15:36:14;38.65;;;13.88;;
75894;SDS011;64573;50.328;15.014;2022-12-18T15:38:41;58.05;;;17.77;;
75894;SDS011;64573;50.328;15.014;2022-12-18T15:41:13;59.22;;;15.85;;
75894;SDS011;64573;50.328;15.014;2022-12-18T15:43:40;46.35;;;17.35;;
75894;SDS011;64573;50.328;15.014;2022-12-18T15:46:08;60.42;;;18.20;;
75894;SDS011;64573;50.328;15.014;2022-12-18T15:48:40;58.22;;;17.73;;
75894;SDS011;64573;50.328;15.014;2022-12-18T15:51:11;68.75;;;22.67;;
75894;SDS011;64573;50.328;15.014;2022-12-18T15:53:40;46.30;;;14.10;;
75894;SDS011;64573;50.328;15.014;2022-12-18T15:56:13;53.45;;;16.30;;
75894;SDS011;64573;50.328;15.014;2022-12-18T15:58:58;48.20;;;14.88;;
75894;SDS011;64573;50.328;15.014;2022-12-18T16:01:25;63.13;;;21.50;;
75894;SDS011;64573;50.328;15.014;2022-12-18T16:03:52;55.92;;;19.10;;
75894;SDS011;64573;50.328;15.014;2022-12-18T16:06:19;65.50;;;20.48;;
75894;SDS011;64573;50.328;15.014;2022-12-18T16:08:44;62.15;;;20.45;;
75894;SDS011;64573;50.328;15.014;2022-12-18T16:11:20;62.13;;;18.55;;
75894;SDS011;64573;50.328;15.014;2022-12-18T16:16:45;52.67;;;18.23;;
75894;SDS011;64573;50.328;15.014;2022-12-18T16:19:11;60.10;;;20.67;;
75894;SDS011;64573;50.328;15.014;2022-12-18T16:21:37;61.47;;;22.55;;
75894;SDS011;64573;50.328;15.014;2022-12-18T16:24:03;54.90;;;17.58;;
75894;SDS011;64573;50.328;15.014;2022-12-18T16:26:28;53.13;;;18.63;;